Time;durP1;ratioP1;P1;durP2;ratioP2;P2;SDS_P1;SDS_P2;PMS_P1;PMS_P2;Temp;Humidity;BMP_temperature;BMP_pressure;BME280_temperature;BME280_humidity;BME280_pressure;Samples;Min_cycle;Max_cycle;Signal;HPM_P1;HPM_P2
2021/08/15 00:00:25;;;;;;;8.13;5.70;;;17.40;99.90;;;18.58;100.00;98364.91;5045611;28;20461;-80
2021/08/15 00:02:53;;;;;;;9.53;5.20;;;17.40;99.90;;;18.52;100.00;98361.34;5046665;28;20515;-80
2021/08/15 00:05:22;;;;;;;7.87;4.77;;;17.20;99.90;;;18.45;100.00;98362.47;5043629;28;20457;-80
2021/08/15 00:07:53;;;;;;;8.43;5.50;;;17.10;99.90;;;18.44;100.00;98359.00;5044575;28;20535;-82
2021/08/15 00:10:23;;;;;;;12.40;5.50;;;17.10;99.90;;;18.27;100.00;98355.41;5038213;28;20481;-80
2021/08/15 00:12:52;;;;;;;12.37;4.87;;;16.90;99.90;;;18.17;100.00;98359.66;5039355;28;20550;-80
2021/08/15 00:15:20;;;;;;;12.37;5.93;;;16.80;99.90;;;18.18;100.00;98361.28;5045340;28;20973;-82
2021/08/15 00:17:49;;;;;;;8.27;5.00;;;16.80;99.90;;;18.22;100.00;98357.16;5042406;28;20493;-80
2021/08/15 00:20:18;;;;;;;12.10;5.10;;;16.90;99.90;;;18.15;100.00;98356.44;5041946;28;20923;-81
2021/08/15 00:22:47;;;;;;;12.43;5.80;;;16.80;99.90;;;18.11;100.00;98353.44;5040398;28;20487;-81
2021/08/15 00:25:18;;;;;;;9.47;5.20;;;16.70;99.90;;;18.17;100.00;98354.38;5047579;28;20498;-80
2021/08/15 00:27:48;;;;;;;9.63;5.23;;;16.90;99.90;;;18.20;100.00;98343.31;5047095;28;20499;-80
2021/08/15 00:30:18;;;;;;;9.00;5.67;;;16.90;99.90;;;18.11;100.00;98348.16;5047414;28;20752;-80
2021/08/15 00:32:48;;;;;;;14.80;5.30;;;16.80;99.90;;;18.11;100.00;98342.84;5044097;28;20461;-80
2021/08/15 00:35:17;;;;;;;10.20;5.00;;;16.80;99.90;;;18.10;100.00;98342.03;5043408;28;21066;-80
2021/08/15 00:37:45;;;;;;;9.37;5.60;;;16.80;99.90;;;18.12;100.00;98341.03;5045211;28;20826;-80
2021/08/15 00:40:16;;;;;;;8.47;5.50;;;16.90;99.90;;;18.06;100.00;98332.13;5047428;28;20504;-80
2021/08/15 00:42:44;;;;;;;7.30;4.90;;;16.80;99.90;;;18.04;100.00;98326.28;5048861;28;20454;-80
2021/08/15 00:45:13;;;;;;;8.67;5.23;;;16.70;99.90;;;18.12;100.00;98331.22;5040753;28;20989;-80
2021/08/15 00:47:41;;;;;;;8.70;5.10;;;16.80;99.90;;;18.03;100.00;98333.41;5043627;28;20458;-80
2021/08/15 00:50:10;;;;;;;7.40;4.70;;;16.70;99.90;;;17.93;100.00;98329.69;5047541;28;20449;-80
2021/08/15 00:52:39;;;;;;;7.77;5.00;;;16.50;99.90;;;17.85;100.00;98327.38;5041889;28;20457;-80
2021/08/15 00:55:12;;;;;;;9.13;5.17;;;16.40;99.90;;;17.85;100.00;98332.66;5055609;28;20560;-80
2021/08/15 00:57:47;;;;;;;23.83;5.80;;;16.50;99.90;;;17.83;100.00;98318.84;5050842;28;20457;-81
2021/08/15 01:00:17;;;;;;;10.07;4.63;;;16.40;99.90;;;17.86;100.00;98318.41;5050261;28;21063;-80
2021/08/15 01:02:48;;;;;;;7.00;4.63;;;16.50;99.90;;;17.78;100.00;98316.88;5050547;28;20465;-80
2021/08/15 01:05:18;;;;;;;9.73;4.70;;;16.40;99.90;;;17.78;100.00;98316.88;5045479;28;20470;-80
2021/08/15 01:07:46;;;;;;;7.70;5.50;;;16.40;99.90;;;17.68;100.00;98311.34;5046186;28;20868;-80
2021/08/15 01:10:18;;;;;;;6.93;4.37;;;16.30;99.90;;;17.64;100.00;98304.06;5047476;28;20461;-81
2021/08/15 01:12:49;;;;;;;16.60;4.80;;;16.20;99.90;;;17.50;100.00;98309.53;5044455;28;20476;-80
2021/08/15 01:15:19;;;;;;;11.10;4.70;;;16.00;99.90;;;17.47;100.00;98309.97;5050707;28;20496;-80
2021/08/15 01:17:47;;;;;;;8.07;4.80;;;16.10;99.90;;;17.50;100.00;98308.72;5050215;28;20745;-80
2021/08/15 01:20:17;;;;;;;13.53;5.50;;;16.10;99.90;;;17.49;100.00;98313.19;5044361;28;20465;-81
2021/08/15 01:22:47;;;;;;;9.00;4.63;;;16.10;99.90;;;17.43;100.00;98303.50;5045012;28;20457;-80
2021/08/15 01:25:16;;;;;;;8.70;5.10;;;16.10;99.90;;;17.46;100.00;98307.53;5046411;28;20494;-81
2021/08/15 01:27:47;;;;;;;13.03;5.17;;;16.10;99.90;;;17.52;100.00;98306.66;5041988;28;20599;-80
2021/08/15 01:30:17;;;;;;;8.37;5.97;;;16.20;99.90;;;17.52;100.00;98318.06;5044206;28;20946;-80
2021/08/15 01:32:47;;;;;;;5.63;3.90;;;16.20;99.90;;;17.54;100.00;98310.69;5047659;28;20526;-80
2021/08/15 01:35:16;;;;;;;6.67;4.40;;;16.30;99.90;;;17.53;100.00;98314.34;5048034;28;20504;-80
2021/08/15 01:37:44;;;;;;;5.90;4.10;;;16.20;99.90;;;17.41;100.00;98316.16;5047190;28;20465;-80
2021/08/15 01:40:13;;;;;;;7.03;4.53;;;16.10;99.90;;;17.39;100.00;98314.78;5044090;28;20495;-80
2021/08/15 01:42:42;;;;;;;8.00;4.93;;;16.00;99.90;;;17.35;100.00;98316.25;5048850;28;20467;-81
2021/08/15 01:45:13;;;;;;;6.53;4.30;;;15.90;99.90;;;17.43;100.00;98308.81;5047749;28;20453;-80
2021/08/15 01:47:43;;;;;;;8.40;4.37;;;16.10;99.90;;;17.38;100.00;98318.44;5046461;28;20444;-80
2021/08/15 01:50:12;;;;;;;7.57;5.20;;;16.10;99.90;;;17.22;100.00;98311.94;5048184;28;20465;-80
2021/08/15 01:52:41;;;;;;;6.83;4.33;;;15.80;99.90;;;17.30;100.00;98311.63;5041437;28;20528;-80
2021/08/15 01:55:11;;;;;;;8.10;4.30;;;16.00;99.90;;;17.26;100.00;98313.09;5046729;28;20554;-80
2021/08/15 01:57:40;;;;;;;8.73;4.90;;;15.90;99.90;;;17.17;100.00;98313.63;5049623;28;20938;-80
2021/08/15 02:00:10;;;;;;;7.93;4.40;;;15.80;99.90;;;17.15;100.00;98319.13;5042831;28;20469;-80
2021/08/15 02:02:43;;;;;;;11.73;5.60;;;15.80;99.90;;;17.06;100.00;98317.81;5042609;28;20469;-80
2021/08/15 02:05:18;;;;;;;6.77;4.50;;;15.60;99.90;;;17.01;100.00;98320.31;5047117;28;20491;-80
2021/08/15 02:07:51;;;;;;;8.53;4.93;;;15.70;99.90;;;17.09;100.00;98312.91;5046624;28;20895;-80
2021/08/15 02:10:22;;;;;;;11.47;4.40;;;15.80;99.90;;;17.09;100.00;98315.53;5047672;28;20472;-81
2021/08/15 02:12:51;;;;;;;7.63;4.47;;;15.80;99.90;;;17.12;100.00;98311.66;5043527;28;20738;-80
2021/08/15 02:15:20;;;;;;;17.20;4.80;;;15.80;99.90;;;17.04;100.00;98318.03;5048865;28;20492;-81
2021/08/15 02:17:50;;;;;;;7.20;4.73;;;15.70;99.90;;;16.88;100.00;98316.00;5048599;28;20526;-80
2021/08/15 02:20:21;;;;;;;8.80;4.27;;;15.50;99.90;;;16.86;100.00;98314.59;5041306;28;20469;-80
2021/08/15 02:22:49;;;;;;;7.67;4.40;;;15.60;99.90;;;16.87;100.00;98311.72;5049341;28;20515;-80
2021/08/15 02:25:20;;;;;;;5.83;4.20;;;15.60;99.90;;;16.88;100.00;98312.53;5049568;28;20461;-80
2021/08/15 02:27:49;;;;;;;7.10;4.20;;;15.60;99.90;;;16.77;100.00;98318.53;5048325;28;20506;-80
2021/08/15 02:30:21;;;;;;;7.73;4.33;;;15.40;99.90;;;16.71;100.00;98312.31;5039135;28;20466;-80
2021/08/15 02:32:52;;;;;;;7.80;4.03;;;15.30;99.90;;;16.72;100.00;98318.41;5038731;28;20514;-80
2021/08/15 02:35:21;;;;;;;9.13;4.30;;;15.30;99.90;;;16.74;100.00;98313.72;5041690;28;20497;-80
2021/08/15 02:37:52;;;;;;;9.70;5.07;;;15.40;99.90;;;16.70;100.00;98310.69;5039882;28;20593;-79
2021/08/15 02:40:22;;;;;;;11.93;3.70;;;15.40;99.90;;;16.64;100.00;98302.84;5048224;28;20489;-81
2021/08/15 02:42:53;;;;;;;11.73;4.70;;;15.30;99.90;;;16.57;100.00;98303.72;5041723;28;20897;-80
2021/08/15 02:45:24;;;;;;;7.57;4.87;;;15.20;99.90;;;16.60;100.00;98300.66;5046817;28;21138;-80
2021/08/15 02:47:54;;;;;;;8.07;4.03;;;15.30;99.90;;;16.49;100.00;98297.88;5048335;28;20445;-80
2021/08/15 02:50:24;;;;;;;10.17;3.60;;;15.10;99.90;;;16.46;100.00;98296.50;5046369;28;20945;-81
2021/08/15 02:52:53;;;;;;;7.07;3.70;;;15.10;99.90;;;16.48;100.00;98294.47;5043083;28;20518;-80
2021/08/15 02:55:21;;;;;;;9.60;4.60;;;15.10;99.90;;;16.34;100.00;98292.97;5043488;28;20486;-81
2021/08/15 02:57:50;;;;;;;11.60;4.57;;;14.90;99.90;;;16.46;100.00;98288.56;5039474;28;20468;-80
2021/08/15 03:00:20;;;;;;;10.60;4.20;;;15.20;99.90;;;16.50;100.00;98292.41;5038969;28;20814;-79
2021/08/15 03:02:48;;;;;;;7.57;4.03;;;15.20;99.90;;;16.51;100.00;98293.22;5043518;28;20465;-80
2021/08/15 03:05:23;;;;;;;8.83;3.97;;;15.20;99.90;;;16.43;100.00;98291.66;5038765;28;20465;-80
2021/08/15 03:07:51;;;;;;;7.20;4.73;;;15.00;99.90;;;16.41;100.00;98285.78;5045097;28;20512;-80
2021/08/15 03:10:20;;;;;;;11.43;4.23;;;15.10;99.90;;;16.32;100.00;98287.09;5043767;28;20469;-80
2021/08/15 03:12:49;;;;;;;8.20;4.07;;;15.00;99.90;;;16.38;100.00;98291.47;5044633;28;20450;-80
2021/08/15 03:15:17;;;;;;;5.80;4.03;;;15.10;99.90;;;16.26;100.00;98287.97;5037697;28;22412;-80
2021/08/15 03:17:46;;;;;;;7.53;4.87;;;14.90;99.90;;;16.19;100.00;98281.94;5047565;28;20468;-80
2021/08/15 03:20:15;;;;;;;8.83;4.10;;;14.80;99.90;;;16.15;100.00;98288.66;5042337;28;20463;-80
2021/08/15 03:22:45;;;;;;;11.00;4.40;;;14.70;99.90;;;16.17;100.00;98285.81;5047704;28;20465;-80
2021/08/15 03:25:13;;;;;;;7.53;4.30;;;14.80;99.90;;;16.13;100.00;98279.34;5049375;28;20995;-80
2021/08/15 03:27:42;;;;;;;8.40;4.23;;;14.70;99.90;;;16.03;100.00;98274.56;5047285;28;20980;-80
2021/08/15 03:30:11;;;;;;;9.00;4.93;;;14.60;99.90;;;16.02;100.00;98272.94;5046068;28;20515;-80
2021/08/15 03:32:40;;;;;;;6.93;4.00;;;14.60;99.90;;;16.08;100.00;98285.28;5044399;28;20465;-80
2021/08/15 03:35:09;;;;;;;6.50;3.90;;;14.80;99.90;;;16.07;100.00;98281.00;5042526;28;20505;-80
2021/08/15 03:37:37;;;;;;;8.20;3.67;;;14.80;99.90;;;16.07;100.00;98287.09;5046681;28;20465;-80
2021/08/15 03:40:09;;;;;;;6.43;4.20;;;14.80;99.90;;;16.07;100.00;98288.94;5047702;28;20523;-80
2021/08/15 03:42:37;;;;;;;7.40;3.53;;;14.70;99.90;;;15.96;100.00;98272.00;5047082;28;20999;-80
2021/08/15 03:45:08;;;;;;;7.00;3.80;;;14.60;99.90;;;16.00;100.00;98275.00;5048933;28;20449;-80
2021/08/15 03:47:38;;;;;;;7.67;4.00;;;14.70;99.90;;;15.98;100.00;98277.03;5049223;28;20466;-80
2021/08/15 03:50:08;;;;;;;5.60;3.67;;;14.60;99.90;;;15.90;100.00;98269.38;5048561;28;20444;-80
2021/08/15 03:52:42;;;;;;;13.37;4.00;;;14.50;99.90;;;15.88;100.00;98274.88;5041649;28;20871;-80
2021/08/15 03:55:12;;;;;;;5.70;3.53;;;14.50;99.90;;;15.87;100.00;98272.47;5039227;28;20832;-80
2021/08/15 03:57:42;;;;;;;11.30;4.37;;;14.50;99.90;;;15.72;100.00;98278.06;5048494;28;20503;-80
2021/08/15 04:00:12;;;;;;;9.63;4.87;;;14.40;99.90;;;15.66;100.00;98267.53;5046322;28;20949;-80
2021/08/15 04:02:41;;;;;;;14.73;4.60;;;14.30;99.90;;;15.72;100.00;98269.34;5044161;28;20465;-80
2021/08/15 04:05:11;;;;;;;7.00;3.70;;;14.50;99.90;;;15.71;100.00;98268.53;5046433;28;20457;-80
2021/08/15 04:07:40;;;;;;;7.67;4.20;;;14.40;99.90;;;15.63;100.00;98270.59;5041142;28;20485;-80
2021/08/15 04:10:11;;;;;;;6.70;3.10;;;14.30;99.90;;;15.52;100.00;98269.47;5049731;28;20440;-80
2021/08/15 04:12:39;;;;;;;9.20;4.73;;;14.20;99.90;;;15.62;100.00;98269.00;5037639;28;20462;-80
2021/08/15 04:15:09;;;;;;;7.57;3.63;;;14.30;99.90;;;15.64;100.00;98261.69;5046838;28;20492;-80
2021/08/15 04:17:38;;;;;;;7.73;3.57;;;14.50;99.90;;;15.62;100.00;98259.25;5046391;28;20567;-80
2021/08/15 04:20:08;;;;;;;6.27;3.70;;;14.40;99.90;;;15.64;100.00;98266.97;5042491;28;20511;-80
2021/08/15 04:22:37;;;;;;;7.73;3.60;;;14.40;99.90;;;15.57;100.00;98265.19;5045695;28;20457;-80
2021/08/15 04:25:07;;;;;;;7.10;3.90;;;14.40;99.90;;;15.46;100.00;98257.91;5036874;28;20819;-80
2021/08/15 04:27:37;;;;;;;6.30;4.03;;;14.20;99.90;;;15.45;100.00;98256.28;5042052;28;20511;-80
2021/08/15 04:30:07;;;;;;;7.20;4.00;;;14.20;99.90;;;15.54;100.00;98252.44;5034114;28;20462;-80
2021/08/15 04:32:36;;;;;;;12.20;4.30;;;14.40;99.90;;;15.60;100.00;98253.41;5046222;28;20511;-80
2021/08/15 04:35:06;;;;;;;8.30;4.07;;;14.40;99.90;;;15.46;100.00;98257.91;5046630;28;20469;-80
2021/08/15 04:37:34;;;;;;;9.07;4.03;;;14.10;99.90;;;15.44;100.00;98253.88;5043427;28;20522;-80
2021/08/15 04:40:04;;;;;;;6.90;3.63;;;14.20;99.90;;;15.48;100.00;98261.16;5036320;28;20485;-80
2021/08/15 04:42:32;;;;;;;12.63;3.73;;;14.20;99.90;;;15.46;100.00;98246.56;5047196;28;20530;-80
2021/08/15 04:45:02;;;;;;;8.33;3.77;;;14.20;99.90;;;15.35;100.00;98248.03;5045973;28;20465;-80
2021/08/15 04:47:31;;;;;;;7.87;4.20;;;14.10;99.90;;;15.45;100.00;98245.75;5042342;28;20515;-80
2021/08/15 04:49:59;;;;;;;10.10;5.13;;;14.20;99.90;;;15.53;100.00;98247.34;5045322;28;20483;-80
2021/08/15 04:52:27;;;;;;;8.10;3.53;;;14.40;99.90;;;15.52;100.00;98245.72;5045878;28;20865;-81
2021/08/15 04:54:56;;;;;;;10.77;4.10;;;14.40;99.90;;;15.45;100.00;98245.75;5047373;28;20453;-80
2021/08/15 04:57:24;;;;;;;7.10;3.70;;;14.30;99.90;;;15.44;100.00;98238.88;5043989;28;20989;-80
2021/08/15 04:59:53;;;;;;;11.53;4.20;;;14.20;99.90;;;15.42;100.00;98238.28;5044822;28;20515;-80
2021/08/15 05:02:23;;;;;;;6.70;3.63;;;14.20;99.90;;;15.42;100.00;98242.72;5036885;28;20512;-80
2021/08/15 05:04:51;;;;;;;8.80;3.80;;;14.20;99.90;;;15.40;100.00;98240.31;5040378;28;20526;-80
2021/08/15 05:07:20;;;;;;;7.23;3.33;;;14.10;99.90;;;15.34;100.00;98235.88;5045773;28;20522;-80
2021/08/15 05:09:48;;;;;;;8.23;4.00;;;14.00;99.90;;;15.38;100.00;98244.97;5042596;28;20463;-80
2021/08/15 05:12:17;;;;;;;12.67;3.33;;;14.10;99.90;;;15.42;100.00;98246.19;5046453;28;21019;-80
2021/08/15 05:14:45;;;;;;;5.93;3.37;;;14.20;99.90;;;15.52;100.00;98243.91;5042812;28;20454;-80
2021/08/15 05:17:14;;;;;;;6.17;4.10;;;14.40;99.90;;;15.59;100.00;98249.94;5037342;28;20559;-80
2021/08/15 05:19:43;;;;;;;4.93;3.50;;;14.40;99.90;;;15.59;100.00;98247.31;5039161;28;20973;-80
2021/08/15 05:22:12;;;;;;;9.43;3.40;;;14.40;99.90;;;15.68;100.00;98249.69;5043301;28;20465;-80
2021/08/15 05:24:40;;;;;;;8.80;4.13;;;14.60;99.90;;;15.57;100.00;98243.28;5035086;28;20465;-80
2021/08/15 05:27:09;;;;;;;6.27;3.00;;;14.40;99.90;;;15.53;100.00;98237.63;5045171;28;20460;-80
2021/08/15 05:29:37;;;;;;;9.93;4.37;;;14.30;99.90;;;15.58;100.00;98239.63;5043079;28;20495;-80
2021/08/15 05:32:07;;;;;;;5.20;3.33;;;14.40;99.90;;;15.60;100.00;98230.47;5034274;28;20535;-80
2021/08/15 05:34:35;;;;;;;5.83;3.80;;;14.40;99.90;;;15.66;100.00;98241.19;5046685;28;20509;-80
2021/08/15 05:37:05;;;;;;;6.40;4.13;;;14.60;99.90;;;15.68;100.00;98237.31;5042562;28;20562;-80
2021/08/15 05:39:33;;;;;;;7.23;4.20;;;14.60;99.90;;;15.74;100.00;98238.28;5042166;28;20510;-81
2021/08/15 05:42:02;;;;;;;8.10;3.83;;;14.70;99.90;;;15.76;100.00;98234.41;5048671;28;20465;-80
2021/08/15 05:44:30;;;;;;;16.63;6.50;;;14.70;99.90;;;15.82;100.00;98233.56;5044763;28;20506;-81
2021/08/15 05:47:04;;;;;;;6.70;4.17;;;14.70;99.90;;;15.88;100.00;98234.53;5038937;28;20461;-80
2021/08/15 05:49:33;;;;;;;11.60;4.13;;;14.90;99.90;;;15.94;100.00;98236.28;5037190;28;20527;-80
2021/08/15 05:52:01;;;;;;;9.30;3.60;;;14.90;99.90;;;15.94;100.00;98238.91;5052467;28;20888;-82
2021/08/15 05:54:31;;;;;;;12.83;5.57;;;14.90;99.90;;;15.93;100.00;98232.06;5046819;28;20461;-80
2021/08/15 05:56:59;;;;;;;6.80;3.60;;;14.80;99.90;;;16.00;100.00;98235.44;5048889;28;20516;-81
2021/08/15 05:59:32;;;;;;;6.70;4.10;;;14.90;99.90;;;16.06;100.00;98226.66;5043740;28;20480;-80
2021/08/15 06:02:01;;;;;;;9.73;4.10;;;15.10;99.90;;;16.11;100.00;98229.44;5050646;28;20475;-79
2021/08/15 06:04:30;;;;;;;5.67;3.53;;;15.10;99.90;;;16.20;100.00;98235.25;5047383;28;20457;-80
2021/08/15 06:06:59;;;;;;;14.63;3.57;;;15.10;99.90;;;16.20;100.00;98235.25;5042446;28;20971;-83
2021/08/15 06:09:27;;;;;;;6.00;3.97;;;15.20;99.90;;;16.25;100.00;98232.75;5039711;28;20485;-79
2021/08/15 06:12:02;;;;;;;12.50;4.43;;;15.20;99.90;;;16.28;100.00;98227.84;5047431;28;21016;-80
2021/08/15 06:14:31;;;;;;;14.10;4.10;;;15.20;99.90;;;16.37;100.00;98228.38;5047773;28;20495;-80
2021/08/15 06:17:00;;;;;;;7.07;3.70;;;15.30;99.90;;;16.43;100.00;98219.56;5049601;28;20492;-80
2021/08/15 06:19:28;;;;;;;13.87;5.70;;;15.40;99.90;;;16.48;100.00;98219.72;5048378;28;21055;-80
2021/08/15 06:21:56;;;;;;;8.50;3.80;;;15.50;99.90;;;16.54;100.00;98216.19;5051761;28;20457;-80
2021/08/15 06:24:25;;;;;;;8.80;5.00;;;15.50;99.90;;;16.58;100.00;98218.22;5050805;28;20465;-80
2021/08/15 06:26:53;;;;;;;7.90;3.83;;;15.60;99.90;;;16.64;100.00;98213.06;5049376;28;20461;-80
2021/08/15 06:29:23;;;;;;;7.90;4.10;;;15.70;99.90;;;16.70;100.00;98206.88;5050456;28;20465;-81
2021/08/15 06:31:52;;;;;;;93.67;56.20;;;15.70;99.90;;;16.75;100.00;98212.31;5048998;28;20463;-81
2021/08/15 06:34:21;;;;;;;25.30;14.00;;;15.70;99.90;;;16.80;100.00;98212.47;5049458;28;20458;-81
2021/08/15 06:36:49;;;;;;;7.27;4.20;;;15.80;99.90;;;16.86;100.00;98207.09;5054654;28;20481;-81
2021/08/15 06:39:18;;;;;;;11.63;4.20;;;15.90;99.90;;;16.90;100.00;98207.47;5052528;28;20437;-81
2021/08/15 06:41:47;;;;;;;7.10;3.97;;;15.90;99.90;;;16.95;100.00;98191.75;5053952;28;20985;-81
2021/08/15 06:44:16;;;;;;;8.97;4.00;;;16.00;99.90;;;17.01;100.00;98188.19;5055554;28;20831;-81
2021/08/15 06:46:46;;;;;;;6.33;3.60;;;16.00;99.90;;;17.06;100.00;98186.50;5050873;28;20808;-81
2021/08/15 06:49:14;;;;;;;7.40;4.37;;;16.10;99.90;;;17.08;100.00;98186.25;5049270;28;20520;-81
2021/08/15 06:51:45;;;;;;;6.80;4.00;;;16.10;99.90;;;17.15;100.00;98194.91;5053964;28;20449;-81
2021/08/15 06:54:14;;;;;;;9.13;3.73;;;16.10;99.90;;;17.19;100.00;98196.06;5051318;28;20495;-81
2021/08/15 06:56:44;;;;;;;6.73;3.83;;;16.10;99.90;;;17.24;100.00;98192.75;5054591;28;20480;-81
2021/08/15 06:59:14;;;;;;;11.27;3.80;;;16.20;99.90;;;17.25;100.00;98192.53;5051905;28;20440;-81
2021/08/15 07:01:45;;;;;;;9.77;4.10;;;16.30;99.90;;;17.32;100.00;98195.88;5054484;28;20811;-81
2021/08/15 07:04:14;;;;;;;14.80;4.07;;;16.30;99.90;;;17.37;100.00;98193.38;5051671;28;20432;-80
2021/08/15 07:06:42;;;;;;;14.87;3.97;;;16.40;99.90;;;17.41;100.00;98183.16;5048959;28;20453;-81
2021/08/15 07:09:11;;;;;;;9.00;4.27;;;16.40;99.90;;;17.47;100.00;98179.59;5047130;28;20932;-80
2021/08/15 07:11:39;;;;;;;8.23;3.83;;;16.50;99.90;;;17.53;100.00;98176.84;5052464;28;20510;-81
2021/08/15 07:14:08;;;;;;;10.30;3.93;;;16.60;99.90;;;17.58;100.00;98174.38;5053245;28;20440;-80
2021/08/15 07:16:36;;;;;;;10.00;3.70;;;16.60;99.90;;;17.66;100.00;98173.22;5051654;28;20511;-81
2021/08/15 07:19:07;;;;;;;8.80;4.90;;;16.70;99.90;;;17.73;100.00;98170.47;5049282;28;20692;-81
2021/08/15 07:21:35;;;;;;;62.90;31.93;;;16.80;99.90;;;17.80;100.00;98176.44;5047431;28;20940;-81
2021/08/15 07:24:05;;;;;;;41.10;23.50;;;16.90;99.90;;;17.85;100.00;98171.25;5049637;28;20461;-81
2021/08/15 07:26:33;;;;;;;16.37;8.50;;;16.90;99.90;;;17.91;100.00;98173.78;5048945;28;20465;-83
2021/08/15 07:29:02;;;;;;;8.80;4.77;;;17.00;99.90;;;17.98;100.00;98168.38;5042171;28;20465;-81
2021/08/15 07:31:31;;;;;;;10.50;4.60;;;17.10;99.90;;;18.03;100.00;98156.06;5035567;28;20453;-81
2021/08/15 07:34:00;;;;;;;7.37;3.93;;;17.10;99.90;;;18.11;100.00;98162.88;5014506;28;54553;-81
2021/08/15 07:36:30;;;;;;;7.90;4.03;;;17.20;99.90;;;18.17;100.00;98161.94;5005381;28;72356;-81
2021/08/15 07:38:58;;;;;;;8.17;4.60;;;17.30;99.90;;;18.24;100.00;98173.19;5014629;28;20551;-81
2021/08/15 07:41:27;;;;;;;8.37;4.47;;;17.40;99.90;;;18.31;100.00;98176.53;5021431;28;20486;-81
2021/08/15 07:43:55;;;;;;;8.53;4.40;;;17.50;99.90;;;18.38;100.00;98174.56;5024121;28;20504;-81
2021/08/15 07:46:24;;;;;;;7.63;4.00;;;17.50;99.90;;;18.44;100.00;98173.63;5024312;28;20461;-81
2021/08/15 07:48:52;;;;;;;12.00;3.67;;;17.60;99.90;;;18.52;100.00;98177.78;5025039;28;20510;-81
2021/08/15 07:51:21;;;;;;;7.73;3.80;;;17.70;99.90;;;18.57;100.00;98170.72;5019108;28;20466;-86
2021/08/15 07:53:51;;;;;;;42.30;22.77;;;17.70;99.90;;;18.64;100.00;98167.16;5020918;28;20535;-81
2021/08/15 07:56:19;;;;;;;14.97;7.30;;;17.80;99.90;;;18.70;100.00;98166.22;5013293;28;20498;-81
2021/08/15 07:58:48;;;;;;;8.93;4.87;;;17.80;99.90;;;18.76;100.00;98165.25;5015736;28;20501;-81
2021/08/15 08:01:18;;;;;;;16.97;5.47;;;17.90;99.90;;;18.82;100.00;98159.00;5013973;28;20458;-81
2021/08/15 08:03:47;;;;;;;11.07;4.47;;;18.10;99.90;;;18.89;100.00;98154.38;5017677;28;20543;-81
2021/08/15 08:06:15;;;;;;;5.50;3.60;;;18.10;99.90;;;18.96;100.00;98153.19;5022117;28;20466;-81
2021/08/15 08:08:44;;;;;;;12.97;3.70;;;18.20;99.90;;;19.04;100.00;98155.47;5023839;28;20490;-81
2021/08/15 08:11:15;;;;;;;5.30;3.60;;;18.20;99.90;;;19.10;100.00;98151.03;5021238;28;20815;-81
2021/08/15 08:13:47;;;;;;;8.80;3.70;;;18.30;99.90;;;19.17;100.00;98146.41;5028098;28;20473;-81
2021/08/15 08:16:15;;;;;;;11.57;4.50;;;18.40;99.90;;;19.25;100.00;98148.66;5018175;28;20471;-81
2021/08/15 08:18:44;;;;;;;9.20;4.47;;;18.50;99.90;;;19.31;100.00;98142.41;5023505;28;20490;-81
2021/08/15 08:21:13;;;;;;;6.60;3.60;;;18.50;99.90;;;19.38;100.00;98137.75;5023894;28;20466;-81
2021/08/15 08:23:41;;;;;;;10.63;4.10;;;18.60;99.90;;;19.44;100.00;98139.44;5021428;28;20470;-81
2021/08/15 08:26:10;;;;;;;9.13;3.00;;;18.70;99.90;;;19.50;100.00;98130.56;5023494;28;20474;-81
2021/08/15 08:28:40;;;;;;;10.07;3.20;;;18.80;99.90;;;19.55;100.00;98130.59;5025744;28;21045;-82
2021/08/15 08:31:08;;;;;;;5.33;2.90;;;18.80;99.90;;;19.61;100.00;98139.44;5024356;28;20515;-81
2021/08/15 08:33:37;;;;;;;4.00;2.77;;;18.90;99.90;;;19.65;100.00;98131.78;5017638;28;20493;-81
2021/08/15 08:36:06;;;;;;;7.90;2.83;;;18.90;99.90;;;19.71;100.00;98144.13;5014400;28;20466;-81
2021/08/15 08:38:35;;;;;;;6.67;2.97;;;19.00;99.90;;;19.74;100.00;98144.44;5021142;28;20499;-81
2021/08/15 08:41:04;;;;;;;4.73;2.70;;;19.00;99.90;;;19.80;100.00;98147.97;5019381;28;20494;-81
2021/08/15 08:43:33;;;;;;;6.23;3.00;;;19.10;99.90;;;19.83;100.00;98139.50;5020959;28;20462;-81
2021/08/15 08:46:03;;;;;;;7.70;2.67;;;19.10;99.90;;;19.89;100.00;98138.53;5014060;28;20467;-81
2021/08/15 08:48:34;;;;;;;6.10;2.63;;;19.20;99.90;;;19.95;100.00;98137.56;5017534;28;20471;-81
2021/08/15 08:51:03;;;;;;;6.47;2.87;;;19.20;99.90;;;20.01;100.00;98139.22;5011783;28;20544;-81
2021/08/15 08:53:34;;;;;;;4.70;2.30;;;19.30;99.90;;;20.07;100.00;98136.41;5012446;28;21058;-81
2021/08/15 08:56:03;;;;;;;4.57;2.57;;;19.40;99.90;;;20.15;100.00;98137.84;5022943;28;20517;-82
2021/08/15 08:58:32;;;;;;;4.30;2.23;;;19.50;99.90;;;20.20;100.00;98132.56;5012290;28;20509;-82
2021/08/15 09:01:02;;;;;;;4.43;2.80;;;19.50;99.90;;;20.29;100.00;98123.19;5019282;28;21054;-81
2021/08/15 09:03:30;;;;;;;11.70;2.80;;;19.60;99.90;;;20.37;100.00;98109.47;5009111;28;20459;-82
2021/08/15 09:05:59;;;;;;;144.17;84.70;;;19.70;99.90;;;20.45;100.00;98110.84;5017989;28;20494;-84
2021/08/15 09:08:33;;;;;;;15.20;8.87;;;19.80;99.90;;;20.51;100.00;98110.66;5021535;28;20529;-82
2021/08/15 09:11:13;;;;;;;10.73;4.50;;;19.90;99.90;;;20.61;100.00;98117.16;5015553;28;20458;-82
2021/08/15 09:13:43;;;;;;;7.00;2.83;;;20.00;99.90;;;20.68;100.00;98123.91;5016503;28;20539;-82
2021/08/15 09:16:13;;;;;;;5.60;2.63;;;20.00;99.90;;;20.75;100.00;98111.22;5016654;28;20470;-82
2021/08/15 09:18:42;;;;;;;7.83;2.53;;;20.20;99.90;;;20.83;100.00;98104.63;5014131;28;20548;-81
2021/08/15 09:21:12;;;;;;;7.13;2.77;;;20.20;99.90;;;20.90;100.00;98105.22;5018207;28;20462;-81
2021/08/15 09:23:40;;;;;;;4.13;2.57;;;20.30;99.90;;;20.96;100.00;98101.56;5021449;28;20461;-82
2021/08/15 09:26:17;;;;;;;4.73;2.60;;;20.40;99.90;;;21.03;100.00;98102.19;5022773;28;20473;-82
2021/08/15 09:28:50;;;;;;;6.97;2.23;;;20.50;99.90;;;21.10;100.00;98089.50;5019152;28;20524;-82
2021/08/15 09:31:28;;;;;;;5.33;2.77;;;20.50;99.90;;;21.17;100.00;98098.06;5019284;28;20470;-82
2021/08/15 09:33:59;;;;;;;7.07;2.57;;;20.60;99.90;;;21.26;100.00;98091.22;5022112;28;20459;-82
2021/08/15 09:36:32;;;;;;;4.30;2.60;;;20.70;99.90;;;21.33;100.00;98094.47;5016988;28;20470;-82
2021/08/15 09:39:04;;;;;;;3.33;2.17;;;20.70;99.90;;;21.39;100.00;98090.78;5021153;28;20525;-81
2021/08/15 09:41:37;;;;;;;4.40;2.50;;;20.80;99.90;;;21.46;100.00;98098.53;5013420;28;20552;-82
2021/08/15 09:44:25;;;;;;;5.80;2.60;;;20.90;99.90;;;21.50;99.63;98089.00;5021522;28;20492;-82
2021/08/15 09:47:06;;;;;;;4.60;2.23;;;20.90;99.90;;;21.57;99.21;98097.56;5013377;28;20500;-82
2021/08/15 09:49:41;;;;;;;5.30;2.27;;;21.00;99.90;;;21.62;97.67;98097.63;5018065;28;20481;-82
2021/08/15 09:52:14;;;;;;;6.47;2.33;;;21.10;99.90;;;21.66;94.65;98101.34;5016369;28;20458;-82
2021/08/15 09:54:53;;;;;;;56.67;31.40;;;21.20;99.90;;;21.73;93.86;98093.16;5024231;28;20466;-82
2021/08/15 09:57:32;;;;;;;19.83;11.50;;;21.20;99.90;;;21.78;94.32;98088.66;5022252;28;20873;-82
2021/08/15 10:00:01;;;;;;;8.53;3.47;;;21.20;99.90;;;21.84;94.35;98092.13;5021782;28;20728;-82
2021/08/15 10:02:31;;;;;;;5.10;2.67;;;21.20;99.90;;;21.88;93.37;98082.56;5020247;28;20477;-81
2021/08/15 10:05:00;;;;;;;3.87;2.03;;;21.30;99.90;;;21.93;92.36;98078.13;5019488;28;21042;-82
2021/08/15 10:07:31;;;;;;;4.17;2.00;;;21.40;99.90;;;21.98;91.85;98075.47;5012169;28;20470;-82
2021/08/15 10:10:00;;;;;;;5.53;2.10;;;21.40;99.90;;;22.04;87.23;98071.75;5018470;28;20476;-81
2021/08/15 10:12:29;;;;;;;5.30;2.63;;;21.50;99.90;;;22.10;88.55;98074.47;5018983;28;20467;-82
2021/08/15 10:14:57;;;;;;;4.17;2.10;;;21.50;99.90;;;22.16;88.83;98073.41;5011136;28;20515;-82
2021/08/15 10:17:32;;;;;;;3.37;2.00;;;21.60;99.90;;;22.24;88.97;98067.59;5024205;28;20471;-82
2021/08/15 10:20:06;;;;;;;3.37;2.40;;;21.70;99.90;;;22.29;88.58;98064.94;5011204;28;20486;-82